Terminal Aerodrome Forecast
Issued by NWS

Home | Current Version | Previous Version | Text Only | Print | Product List | Glossary On
Versions: 1 2 3 4 5 6 7 8 9 10 11 12 13 14 15
000
FTUS43 KOAX 270520
TAFSNY
TAF
KSNY 270520Z 2706/2806 30010KT 5SM -SN BR SCT025 OVC050
     FM270800 29009KT 4SM BR OVC015
     FM271500 29012KT P6SM BKN050=

USA.gov is the U.S. government's official web portal to all federal, state and local government web resources and services.